sensor_id;sensor_type;location;lat;lon;timestamp;temperature;humidity
68801;SHT31;55784;50.734;7.086;2023-11-18T00:01:43;3.49;99.99
68801;SHT31;55784;50.734;7.086;2023-11-18T00:04:08;3.44;99.99
68801;SHT31;55784;50.734;7.086;2023-11-18T00:06:43;3.44;99.99
68801;SHT31;55784;50.734;7.086;2023-11-18T00:09:10;3.43;99.99
68801;SHT31;55784;50.734;7.086;2023-11-18T00:11:40;3.47;99.99
68801;SHT31;55784;50.734;7.086;2023-11-18T00:14:11;3.52;99.99
68801;SHT31;55784;50.734;7.086;2023-11-18T00:16:38;3.53;99.99
68801;SHT31;55784;50.734;7.086;2023-11-18T00:19:03;3.57;99.99
68801;SHT31;55784;50.734;7.086;2023-11-18T00:21:30;3.63;99.99
68801;SHT31;55784;50.734;7.086;2023-11-18T00:23:56;3.67;99.99
68801;SHT31;55784;50.734;7.086;2023-11-18T00:26:22;3.73;99.99
68801;SHT31;55784;50.734;7.086;2023-11-18T00:28:47;3.81;99.99
68801;SHT31;55784;50.734;7.086;2023-11-18T00:31:13;3.88;99.99
68801;SHT31;55784;50.734;7.086;2023-11-18T00:33:39;4.01;99.99
68801;SHT31;55784;50.734;7.086;2023-11-18T00:36:05;4.12;99.99
68801;SHT31;55784;50.734;7.086;2023-11-18T00:38:30;4.21;99.99
68801;SHT31;55784;50.734;7.086;2023-11-18T00:40:56;4.28;99.99
68801;SHT31;55784;50.734;7.086;2023-11-18T00:43:21;4.38;99.99
68801;SHT31;55784;50.734;7.086;2023-11-18T00:45:47;4.44;99.99
68801;SHT31;55784;50.734;7.086;2023-11-18T00:48:12;4.49;99.99
68801;SHT31;55784;50.734;7.086;2023-11-18T00:50:38;4.58;99.99
68801;SHT31;55784;50.734;7.086;2023-11-18T00:53:03;4.59;99.99
68801;SHT31;55784;50.734;7.086;2023-11-18T00:55:30;4.60;99.99
68801;SHT31;55784;50.734;7.086;2023-11-18T00:57:56;4.59;99.99
68801;SHT31;55784;50.734;7.086;2023-11-18T01:00:22;4.58;99.99
68801;SHT31;55784;50.734;7.086;2023-11-18T01:02:48;4.53;99.99
68801;SHT31;55784;50.734;7.086;2023-11-18T01:05:15;4.50;99.99
68801;SHT31;55784;50.734;7.086;2023-11-18T01:07:40;4.48;99.99
68801;SHT31;55784;50.734;7.086;2023-11-18T01:10:06;4.45;99.99
68801;SHT31;55784;50.734;7.086;2023-11-18T01:12:32;4.50;99.99
68801;SHT31;55784;50.734;7.086;2023-11-18T01:14:57;4.59;99.99
68801;SHT31;55784;50.734;7.086;2023-11-18T01:17:23;4.68;99.99
68801;SHT31;55784;50.734;7.086;2023-11-18T01:19:49;4.73;99.99
68801;SHT31;55784;50.734;7.086;2023-11-18T01:22:14;4.82;99.99
68801;SHT31;55784;50.734;7.086;2023-11-18T01:24:40;4.86;99.99
68801;SHT31;55784;50.734;7.086;2023-11-18T01:27:05;4.96;99.99
68801;SHT31;55784;50.734;7.086;2023-11-18T01:29:35;4.99;99.99
68801;SHT31;55784;50.734;7.086;2023-11-18T01:32:00;4.96;99.99
68801;SHT31;55784;50.734;7.086;2023-11-18T01:34:25;5.01;99.99
68801;SHT31;55784;50.734;7.086;2023-11-18T01:36:51;5.01;99.99
68801;SHT31;55784;50.734;7.086;2023-11-18T01:39:17;5.03;99.99
68801;SHT31;55784;50.734;7.086;2023-11-18T01:41:46;5.09;99.99
68801;SHT31;55784;50.734;7.086;2023-11-18T01:44:11;5.09;99.99
68801;SHT31;55784;50.734;7.086;2023-11-18T01:46:39;5.10;99.99
68801;SHT31;55784;50.734;7.086;2023-11-18T01:49:05;5.17;99.99
68801;SHT31;55784;50.734;7.086;2023-11-18T01:51:33;5.27;99.99
68801;SHT31;55784;50.734;7.086;2023-11-18T01:54:00;5.30;99.99
68801;SHT31;55784;50.734;7.086;2023-11-18T01:56:27;5.33;99.99
68801;SHT31;55784;50.734;7.086;2023-11-18T01:58:53;5.34;99.99
68801;SHT31;55784;50.734;7.086;2023-11-18T02:01:19;5.33;99.99
68801;SHT31;55784;50.734;7.086;2023-11-18T02:03:44;5.31;99.92
68801;SHT31;55784;50.734;7.086;2023-11-18T02:06:09;5.27;99.97
68801;SHT31;55784;50.734;7.086;2023-11-18T02:08:36;5.30;99.76
68801;SHT31;55784;50.734;7.086;2023-11-18T02:11:28;5.33;99.91
68801;SHT31;55784;50.734;7.086;2023-11-18T02:13:56;5.34;99.84
68801;SHT31;55784;50.734;7.086;2023-11-18T02:16:24;5.38;99.80
68801;SHT31;55784;50.734;7.086;2023-11-18T02:18:52;5.38;99.70
68801;SHT31;55784;50.734;7.086;2023-11-18T02:21:18;5.41;99.68
68801;SHT31;55784;50.734;7.086;2023-11-18T02:23:47;5.43;99.58
68801;SHT31;55784;50.734;7.086;2023-11-18T02:26:21;5.44;99.50
68801;SHT31;55784;50.734;7.086;2023-11-18T02:28:46;5.44;99.43
68801;SHT31;55784;50.734;7.086;2023-11-18T02:31:16;5.45;99.55
68801;SHT31;55784;50.734;7.086;2023-11-18T02:33:56;5.54;99.31
68801;SHT31;55784;50.734;7.086;2023-11-18T02:39:11;5.56;99.42
68801;SHT31;55784;50.734;7.086;2023-11-18T02:41:41;5.59;99.29
68801;SHT31;55784;50.734;7.086;2023-11-18T02:44:10;5.58;99.11
68801;SHT31;55784;50.734;7.086;2023-11-18T02:46:36;5.64;99.25
68801;SHT31;55784;50.734;7.086;2023-11-18T02:49:03;5.62;99.18
68801;SHT31;55784;50.734;7.086;2023-11-18T02:51:28;5.65;99.07
68801;SHT31;55784;50.734;7.086;2023-11-18T02:53:57;5.72;99.00
68801;SHT31;55784;50.734;7.086;2023-11-18T02:56:22;5.68;98.60
68801;SHT31;55784;50.734;7.086;2023-11-18T02:58:47;5.66;98.64
68801;SHT31;55784;50.734;7.086;2023-11-18T03:01:13;5.65;98.78
68801;SHT31;55784;50.734;7.086;2023-11-18T03:03:38;5.68;98.77
68801;SHT31;55784;50.734;7.086;2023-11-18T03:06:04;5.66;98.59
68801;SHT31;55784;50.734;7.086;2023-11-18T03:08:33;5.64;98.60
68801;SHT31;55784;50.734;7.086;2023-11-18T03:10:59;5.61;98.54
68801;SHT31;55784;50.734;7.086;2023-11-18T03:13:24;5.58;98.59
68801;SHT31;55784;50.734;7.086;2023-11-18T03:15:50;5.54;98.69
68801;SHT31;55784;50.734;7.086;2023-11-18T03:18:16;5.54;98.72
68801;SHT31;55784;50.734;7.086;2023-11-18T03:20:41;5.54;98.84
68801;SHT31;55784;50.734;7.086;2023-11-18T03:23:06;5.50;98.93
68801;SHT31;55784;50.734;7.086;2023-11-18T03:25:34;5.52;98.92
68801;SHT31;55784;50.734;7.086;2023-11-18T03:28:00;5.52;98.93
68801;SHT31;55784;50.734;7.086;2023-11-18T03:30:25;5.52;98.94
68801;SHT31;55784;50.734;7.086;2023-11-18T03:32:50;5.51;98.96
68801;SHT31;55784;50.734;7.086;2023-11-18T03:35:16;5.51;98.95
68801;SHT31;55784;50.734;7.086;2023-11-18T03:37:41;5.50;98.98
68801;SHT31;55784;50.734;7.086;2023-11-18T03:40:08;5.47;98.94
68801;SHT31;55784;50.734;7.086;2023-11-18T03:42:33;5.44;99.03
68801;SHT31;55784;50.734;7.086;2023-11-18T03:45:17;5.43;99.10
68801;SHT31;55784;50.734;7.086;2023-11-18T03:47:56;5.40;99.16
68801;SHT31;55784;50.734;7.086;2023-11-18T03:50:22;5.37;99.17
68801;SHT31;55784;50.734;7.086;2023-11-18T03:52:53;5.35;99.21
68801;SHT31;55784;50.734;7.086;2023-11-18T03:55:19;5.35;99.24
68801;SHT31;55784;50.734;7.086;2023-11-18T04:01:41;5.27;99.24
68801;SHT31;55784;50.734;7.086;2023-11-18T04:04:08;5.23;99.28
68801;SHT31;55784;50.734;7.086;2023-11-18T04:06:37;5.17;99.32
68801;SHT31;55784;50.734;7.086;2023-11-18T04:09:02;5.13;99.49
68801;SHT31;55784;50.734;7.086;2023-11-18T04:12:13;5.10;99.58
68801;SHT31;55784;50.734;7.086;2023-11-18T04:14:47;5.06;99.65
68801;SHT31;55784;50.734;7.086;2023-11-18T04:17:13;5.07;99.70
68801;SHT31;55784;50.734;7.086;2023-11-18T04:19:38;5.04;99.78
68801;SHT31;55784;50.734;7.086;2023-11-18T04:22:04;5.06;99.86
68801;SHT31;55784;50.734;7.086;2023-11-18T04:24:29;5.11;99.91
68801;SHT31;55784;50.734;7.086;2023-11-18T04:27:14;5.14;99.99
68801;SHT31;55784;50.734;7.086;2023-11-18T04:30:12;5.14;99.92
68801;SHT31;55784;50.734;7.086;2023-11-18T04:32:38;5.19;99.90
68801;SHT31;55784;50.734;7.086;2023-11-18T04:35:03;5.24;99.90
68801;SHT31;55784;50.734;7.086;2023-11-18T04:37:34;5.24;99.72
68801;SHT31;55784;50.734;7.086;2023-11-18T04:40:00;5.21;99.76
68801;SHT31;55784;50.734;7.086;2023-11-18T04:42:25;5.23;99.75
68801;SHT31;55784;50.734;7.086;2023-11-18T04:48:03;5.26;99.80
68801;SHT31;55784;50.734;7.086;2023-11-18T04:50:30;5.23;99.80
68801;SHT31;55784;50.734;7.086;2023-11-18T04:52:58;5.17;99.88
68801;SHT31;55784;50.734;7.086;2023-11-18T04:55:24;5.23;99.89
68801;SHT31;55784;50.734;7.086;2023-11-18T04:57:51;5.21;99.87
68801;SHT31;55784;50.734;7.086;2023-11-18T05:00:17;5.21;99.83
68801;SHT31;55784;50.734;7.086;2023-11-18T05:02:44;5.21;99.85
68801;SHT31;55784;50.734;7.086;2023-11-18T05:05:12;5.17;99.77
68801;SHT31;55784;50.734;7.086;2023-11-18T05:07:43;5.13;99.77
68801;SHT31;55784;50.734;7.086;2023-11-18T05:10:28;5.09;99.77
68801;SHT31;55784;50.734;7.086;2023-11-18T05:13:03;5.04;99.85
68801;SHT31;55784;50.734;7.086;2023-11-18T05:15:28;4.99;99.86
68801;SHT31;55784;50.734;7.086;2023-11-18T05:17:55;4.92;99.90
68801;SHT31;55784;50.734;7.086;2023-11-18T05:23:22;4.92;99.99
68801;SHT31;55784;50.734;7.086;2023-11-18T05:25:47;4.86;99.99
68801;SHT31;55784;50.734;7.086;2023-11-18T05:28:13;4.84;99.99
68801;SHT31;55784;50.734;7.086;2023-11-18T05:30:41;4.84;99.99
68801;SHT31;55784;50.734;7.086;2023-11-18T05:33:17;4.87;99.99
68801;SHT31;55784;50.734;7.086;2023-11-18T05:35:46;4.94;99.99
68801;SHT31;55784;50.734;7.086;2023-11-18T05:38:18;4.94;99.99
68801;SHT31;55784;50.734;7.086;2023-11-18T05:40:49;4.96;99.99
68801;SHT31;55784;50.734;7.086;2023-11-18T05:43:25;5.01;99.99
68801;SHT31;55784;50.734;7.086;2023-11-18T05:45:53;5.06;99.99
68801;SHT31;55784;50.734;7.086;2023-11-18T05:48:37;5.07;99.99
68801;SHT31;55784;50.734;7.086;2023-11-18T05:51:03;5.11;99.99
68801;SHT31;55784;50.734;7.086;2023-11-18T05:53:28;5.11;99.99
68801;SHT31;55784;50.734;7.086;2023-11-18T05:55:54;5.13;99.99
68801;SHT31;55784;50.734;7.086;2023-11-18T05:58:20;5.17;99.99
68801;SHT31;55784;50.734;7.086;2023-11-18T06:00:46;5.20;99.99
68801;SHT31;55784;50.734;7.086;2023-11-18T06:03:12;5.21;99.99
68801;SHT31;55784;50.734;7.086;2023-11-18T06:05:37;5.24;99.99
68801;SHT31;55784;50.734;7.086;2023-11-18T06:08:03;5.27;99.94
68801;SHT31;55784;50.734;7.086;2023-11-18T06:10:29;5.33;99.85
68801;SHT31;55784;50.734;7.086;2023-11-18T06:12:57;5.35;99.77
68801;SHT31;55784;50.734;7.086;2023-11-18T06:15:24;5.40;99.72
68801;SHT31;55784;50.734;7.086;2023-11-18T06:17:49;5.43;99.46
68801;SHT31;55784;50.734;7.086;2023-11-18T06:20:14;5.45;99.48
68801;SHT31;55784;50.734;7.086;2023-11-18T06:22:58;5.48;99.42
68801;SHT31;55784;50.734;7.086;2023-11-18T06:25:23;5.48;99.34
68801;SHT31;55784;50.734;7.086;2023-11-18T06:27:51;5.48;99.26
68801;SHT31;55784;50.734;7.086;2023-11-18T06:30:18;5.47;99.25
68801;SHT31;55784;50.734;7.086;2023-11-18T06:32:45;5.48;99.27
68801;SHT31;55784;50.734;7.086;2023-11-18T06:35:15;5.48;99.33
68801;SHT31;55784;50.734;7.086;2023-11-18T06:37:40;5.45;99.41
68801;SHT31;55784;50.734;7.086;2023-11-18T06:40:06;5.50;99.35
68801;SHT31;55784;50.734;7.086;2023-11-18T06:42:43;5.48;99.43
68801;SHT31;55784;50.734;7.086;2023-11-18T06:45:12;5.54;99.36
68801;SHT31;55784;50.734;7.086;2023-11-18T06:47:38;5.56;99.41
68801;SHT31;55784;50.734;7.086;2023-11-18T06:50:04;5.58;99.31
68801;SHT31;55784;50.734;7.086;2023-11-18T06:52:29;5.58;99.30
68801;SHT31;55784;50.734;7.086;2023-11-18T06:54:55;5.59;99.28
68801;SHT31;55784;50.734;7.086;2023-11-18T06:57:20;5.59;99.32
68801;SHT31;55784;50.734;7.086;2023-11-18T06:59:46;5.58;99.41
68801;SHT31;55784;50.734;7.086;2023-11-18T07:02:12;5.58;99.55
68801;SHT31;55784;50.734;7.086;2023-11-18T07:04:37;5.59;99.64
68801;SHT31;55784;50.734;7.086;2023-11-18T07:07:03;5.64;99.60
68801;SHT31;55784;50.734;7.086;2023-11-18T07:09:29;5.68;99.52
68801;SHT31;55784;50.734;7.086;2023-11-18T07:11:54;5.72;99.56
68801;SHT31;55784;50.734;7.086;2023-11-18T07:14:21;5.75;99.54
68801;SHT31;55784;50.734;7.086;2023-11-18T07:16:47;5.82;99.49
68801;SHT31;55784;50.734;7.086;2023-11-18T07:19:13;5.86;99.43
68801;SHT31;55784;50.734;7.086;2023-11-18T07:21:46;5.92;99.30
68801;SHT31;55784;50.734;7.086;2023-11-18T07:24:11;5.98;99.26
68801;SHT31;55784;50.734;7.086;2023-11-18T07:26:37;6.01;99.00
68801;SHT31;55784;50.734;7.086;2023-11-18T07:29:02;6.03;99.00
68801;SHT31;55784;50.734;7.086;2023-11-18T07:31:28;6.08;98.87
68801;SHT31;55784;50.734;7.086;2023-11-18T07:33:54;6.10;98.94
68801;SHT31;55784;50.734;7.086;2023-11-18T07:36:20;6.17;98.80
68801;SHT31;55784;50.734;7.086;2023-11-18T07:38:46;6.19;98.70
68801;SHT31;55784;50.734;7.086;2023-11-18T07:41:11;6.23;98.69
68801;SHT31;55784;50.734;7.086;2023-11-18T07:43:52;6.29;98.67
68801;SHT31;55784;50.734;7.086;2023-11-18T07:46:21;6.34;98.61
68801;SHT31;55784;50.734;7.086;2023-11-18T07:48:50;6.40;98.77
68801;SHT31;55784;50.734;7.086;2023-11-18T07:51:17;6.49;98.71
68801;SHT31;55784;50.734;7.086;2023-11-18T07:53:42;6.60;98.70
68801;SHT31;55784;50.734;7.086;2023-11-18T07:56:08;6.66;98.21
68801;SHT31;55784;50.734;7.086;2023-11-18T07:58:37;6.66;97.87
68801;SHT31;55784;50.734;7.086;2023-11-18T08:01:03;6.70;97.73
68801;SHT31;55784;50.734;7.086;2023-11-18T08:03:32;6.74;97.68
68801;SHT31;55784;50.734;7.086;2023-11-18T08:05:58;6.83;97.63
68801;SHT31;55784;50.734;7.086;2023-11-18T08:08:23;6.88;97.50
68801;SHT31;55784;50.734;7.086;2023-11-18T08:10:49;6.94;97.36
68801;SHT31;55784;50.734;7.086;2023-11-18T08:13:15;6.97;97.18
68801;SHT31;55784;50.734;7.086;2023-11-18T08:15:42;7.02;97.11
68801;SHT31;55784;50.734;7.086;2023-11-18T08:18:10;7.07;96.78
68801;SHT31;55784;50.734;7.086;2023-11-18T08:20:36;7.15;96.82
68801;SHT31;55784;50.734;7.086;2023-11-18T08:23:02;7.18;96.85
68801;SHT31;55784;50.734;7.086;2023-11-18T08:25:28;7.31;96.71
68801;SHT31;55784;50.734;7.086;2023-11-18T08:27:53;7.31;96.10
68801;SHT31;55784;50.734;7.086;2023-11-18T08:30:19;7.33;96.11
68801;SHT31;55784;50.734;7.086;2023-11-18T08:32:46;7.32;95.68
68801;SHT31;55784;50.734;7.086;2023-11-18T08:35:15;7.38;95.55
68801;SHT31;55784;50.734;7.086;2023-11-18T08:37:44;7.42;95.38
68801;SHT31;55784;50.734;7.086;2023-11-18T08:40:14;7.48;95.34
68801;SHT31;55784;50.734;7.086;2023-11-18T08:42:50;7.48;94.95
68801;SHT31;55784;50.734;7.086;2023-11-18T08:45:23;7.49;94.84
68801;SHT31;55784;50.734;7.086;2023-11-18T08:47:54;7.52;94.88
68801;SHT31;55784;50.734;7.086;2023-11-18T08:50:21;7.62;94.65
68801;SHT31;55784;50.734;7.086;2023-11-18T08:52:49;7.65;94.53
68801;SHT31;55784;50.734;7.086;2023-11-18T08:55:18;7.70;94.40
68801;SHT31;55784;50.734;7.086;2023-11-18T08:57:51;7.75;94.05
68801;SHT31;55784;50.734;7.086;2023-11-18T09:00:30;7.79;94.02
68801;SHT31;55784;50.734;7.086;2023-11-18T09:03:20;7.76;93.49
68801;SHT31;55784;50.734;7.086;2023-11-18T09:05:56;7.79;93.53
68801;SHT31;55784;50.734;7.086;2023-11-18T09:08:31;7.84;93.48
68801;SHT31;55784;50.734;7.086;2023-11-18T09:11:08;7.89;93.35
68801;SHT31;55784;50.734;7.086;2023-11-18T09:13:36;7.89;93.11
68801;SHT31;55784;50.734;7.086;2023-11-18T09:16:06;7.86;93.22
68801;SHT31;55784;50.734;7.086;2023-11-18T09:18:39;7.83;93.42
68801;SHT31;55784;50.734;7.086;2023-11-18T09:21:05;7.89;93.43
68801;SHT31;55784;50.734;7.086;2023-11-18T09:23:32;7.89;93.31
68801;SHT31;55784;50.734;7.086;2023-11-18T09:26:00;7.89;93.39
68801;SHT31;55784;50.734;7.086;2023-11-18T09:28:27;7.91;93.19
68801;SHT31;55784;50.734;7.086;2023-11-18T09:30:55;7.90;93.17
68801;SHT31;55784;50.734;7.086;2023-11-18T09:33:24;7.98;93.27
68801;SHT31;55784;50.734;7.086;2023-11-18T09:36:04;7.93;93.13
68801;SHT31;55784;50.734;7.086;2023-11-18T09:38:34;7.96;93.16
68801;SHT31;55784;50.734;7.086;2023-11-18T09:41:01;8.01;93.21
68801;SHT31;55784;50.734;7.086;2023-11-18T09:43:33;7.89;92.81
68801;SHT31;55784;50.734;7.086;2023-11-18T09:46:09;7.91;93.06
68801;SHT31;55784;50.734;7.086;2023-11-18T09:48:51;7.93;93.01
68801;SHT31;55784;50.734;7.086;2023-11-18T09:51:26;8.10;92.87
68801;SHT31;55784;50.734;7.086;2023-11-18T09:54:01;8.11;92.20
68801;SHT31;55784;50.734;7.086;2023-11-18T09:59:23;8.26;92.25
68801;SHT31;55784;50.734;7.086;2023-11-18T10:01:53;8.36;91.98
68801;SHT31;55784;50.734;7.086;2023-11-18T10:04:24;8.33;91.45
68801;SHT31;55784;50.734;7.086;2023-11-18T10:06:55;8.42;91.69
68801;SHT31;55784;50.734;7.086;2023-11-18T10:09:23;8.42;91.29
68801;SHT31;55784;50.734;7.086;2023-11-18T10:12:02;8.47;91.56
68801;SHT31;55784;50.734;7.086;2023-11-18T10:14:41;8.55;91.56
68801;SHT31;55784;50.734;7.086;2023-11-18T10:17:08;8.58;91.16
68801;SHT31;55784;50.734;7.086;2023-11-18T10:20:09;8.44;91.21
68801;SHT31;55784;50.734;7.086;2023-11-18T10:22:38;8.54;91.35
68801;SHT31;55784;50.734;7.086;2023-11-18T10:25:03;8.55;91.36
68801;SHT31;55784;50.734;7.086;2023-11-18T10:27:33;8.65;91.13
68801;SHT31;55784;50.734;7.086;2023-11-18T10:30:05;8.65;90.38
68801;SHT31;55784;50.734;7.086;2023-11-18T10:32:55;8.62;90.56
68801;SHT31;55784;50.734;7.086;2023-11-18T10:35:20;8.61;90.73
68801;SHT31;55784;50.734;7.086;2023-11-18T10:37:46;8.61;90.72
68801;SHT31;55784;50.734;7.086;2023-11-18T10:40:12;8.65;90.52
68801;SHT31;55784;50.734;7.086;2023-11-18T10:42:40;8.64;90.36
68801;SHT31;55784;50.734;7.086;2023-11-18T10:45:11;8.67;90.35
68801;SHT31;55784;50.734;7.086;2023-11-18T10:47:42;8.58;90.38
68801;SHT31;55784;50.734;7.086;2023-11-18T10:50:08;8.62;90.54
68801;SHT31;55784;50.734;7.086;2023-11-18T10:52:35;8.64;90.72
68801;SHT31;55784;50.734;7.086;2023-11-18T10:55:02;8.64;90.75
68801;SHT31;55784;50.734;7.086;2023-11-18T10:57:36;8.71;90.84
68801;SHT31;55784;50.734;7.086;2023-11-18T11:00:06;8.65;90.98
68801;SHT31;55784;50.734;7.086;2023-11-18T11:02:39;8.59;91.32
68801;SHT31;55784;50.734;7.086;2023-11-18T11:05:07;8.65;91.50
68801;SHT31;55784;50.734;7.086;2023-11-18T11:07:33;8.72;91.62
68801;SHT31;55784;50.734;7.086;2023-11-18T11:10:01;8.71;91.47
68801;SHT31;55784;50.734;7.086;2023-11-18T11:12:33;8.71;91.57
68801;SHT31;55784;50.734;7.086;2023-11-18T11:15:17;8.62;91.71
68801;SHT31;55784;50.734;7.086;2023-11-18T11:17:51;8.51;91.67
68801;SHT31;55784;50.734;7.086;2023-11-18T11:20:25;8.40;92.09
68801;SHT31;55784;50.734;7.086;2023-11-18T11:28:43;8.36;92.30
68801;SHT31;55784;50.734;7.086;2023-11-18T11:31:30;8.41;92.26
68801;SHT31;55784;50.734;7.086;2023-11-18T11:33:58;8.40;92.15
68801;SHT31;55784;50.734;7.086;2023-11-18T11:36:30;8.59;92.07
68801;SHT31;55784;50.734;7.086;2023-11-18T11:38:59;8.67;92.02
68801;SHT31;55784;50.734;7.086;2023-11-18T11:41:27;8.73;92.05
68801;SHT31;55784;50.734;7.086;2023-11-18T11:43:57;8.86;91.85
68801;SHT31;55784;50.734;7.086;2023-11-18T11:46:24;8.98;91.47
68801;SHT31;55784;50.734;7.086;2023-11-18T11:48:52;9.02;91.32
68801;SHT31;55784;50.734;7.086;2023-11-18T11:51:54;9.13;91.15
68801;SHT31;55784;50.734;7.086;2023-11-18T11:54:20;9.18;90.80
68801;SHT31;55784;50.734;7.086;2023-11-18T11:56:48;9.27;90.75
68801;SHT31;55784;50.734;7.086;2023-11-18T12:02:13;9.26;90.73
68801;SHT31;55784;50.734;7.086;2023-11-18T12:04:45;9.13;90.73
68801;SHT31;55784;50.734;7.086;2023-11-18T12:07:11;9.10;90.93
68801;SHT31;55784;50.734;7.086;2023-11-18T12:09:41;9.12;91.03
68801;SHT31;55784;50.734;7.086;2023-11-18T12:12:18;9.16;91.18
68801;SHT31;55784;50.734;7.086;2023-11-18T12:17:18;9.09;91.59
68801;SHT31;55784;50.734;7.086;2023-11-18T12:19:47;9.10;91.59
68801;SHT31;55784;50.734;7.086;2023-11-18T12:25:44;9.30;90.95
68801;SHT31;55784;50.734;7.086;2023-11-18T12:28:34;9.40;91.06
68801;SHT31;55784;50.734;7.086;2023-11-18T12:31:04;9.36;90.46
68801;SHT31;55784;50.734;7.086;2023-11-18T12:33:59;9.30;90.37
68801;SHT31;55784;50.734;7.086;2023-11-18T12:37:00;9.20;90.97
68801;SHT31;55784;50.734;7.086;2023-11-18T12:40:08;9.18;90.93
68801;SHT31;55784;50.734;7.086;2023-11-18T12:43:11;9.18;91.22
68801;SHT31;55784;50.734;7.086;2023-11-18T12:48:27;9.20;91.21
68801;SHT31;55784;50.734;7.086;2023-11-18T12:50:57;9.13;91.35
68801;SHT31;55784;50.734;7.086;2023-11-18T12:53:24;9.18;90.99
68801;SHT31;55784;50.734;7.086;2023-11-18T12:55:50;9.12;91.07
68801;SHT31;55784;50.734;7.086;2023-11-18T12:58:17;9.08;91.21
68801;SHT31;55784;50.734;7.086;2023-11-18T13:00:43;9.03;91.37
68801;SHT31;55784;50.734;7.086;2023-11-18T13:03:09;9.03;91.48
68801;SHT31;55784;50.734;7.086;2023-11-18T13:05:35;8.90;91.77
68801;SHT31;55784;50.734;7.086;2023-11-18T13:08:02;9.00;92.05
68801;SHT31;55784;50.734;7.086;2023-11-18T13:10:28;8.99;92.12
68801;SHT31;55784;50.734;7.086;2023-11-18T13:12:54;8.93;92.00
68801;SHT31;55784;50.734;7.086;2023-11-18T13:15:20;9.02;92.17
68801;SHT31;55784;50.734;7.086;2023-11-18T13:17:59;9.08;92.26
68801;SHT31;55784;50.734;7.086;2023-11-18T13:20:25;9.09;92.53
68801;SHT31;55784;50.734;7.086;2023-11-18T13:22:51;9.23;92.48
68801;SHT31;55784;50.734;7.086;2023-11-18T13:25:17;9.20;92.30
68801;SHT31;55784;50.734;7.086;2023-11-18T13:27:43;9.18;92.58
68801;SHT31;55784;50.734;7.086;2023-11-18T13:30:09;9.08;92.72
68801;SHT31;55784;50.734;7.086;2023-11-18T13:32:41;9.18;92.93
68801;SHT31;55784;50.734;7.086;2023-11-18T13:35:07;9.24;92.70
68801;SHT31;55784;50.734;7.086;2023-11-18T13:37:33;9.24;93.02
68801;SHT31;55784;50.734;7.086;2023-11-18T13:39:58;9.27;93.29
68801;SHT31;55784;50.734;7.086;2023-11-18T13:42:26;9.27;93.14
68801;SHT31;55784;50.734;7.086;2023-11-18T13:44:53;9.34;92.98
68801;SHT31;55784;50.734;7.086;2023-11-18T13:47:26;9.39;93.07
68801;SHT31;55784;50.734;7.086;2023-11-18T13:49:54;9.46;92.75
68801;SHT31;55784;50.734;7.086;2023-11-18T13:52:19;9.44;92.50
68801;SHT31;55784;50.734;7.086;2023-11-18T13:54:46;9.37;92.82
68801;SHT31;55784;50.734;7.086;2023-11-18T13:57:12;9.37;93.01
68801;SHT31;55784;50.734;7.086;2023-11-18T13:59:38;9.37;92.84
68801;SHT31;55784;50.734;7.086;2023-11-18T14:02:09;9.30;92.94
68801;SHT31;55784;50.734;7.086;2023-11-18T14:04:34;9.26;93.17
68801;SHT31;55784;50.734;7.086;2023-11-18T14:07:01;9.32;93.40
68801;SHT31;55784;50.734;7.086;2023-11-18T14:09:29;9.23;93.42
68801;SHT31;55784;50.734;7.086;2023-11-18T14:11:55;9.18;93.48
68801;SHT31;55784;50.734;7.086;2023-11-18T14:14:21;9.19;93.70
68801;SHT31;55784;50.734;7.086;2023-11-18T14:16:48;9.22;93.97
68801;SHT31;55784;50.734;7.086;2023-11-18T14:19:14;9.24;93.72
68801;SHT31;55784;50.734;7.086;2023-11-18T14:22:06;9.27;93.96
68801;SHT31;55784;50.734;7.086;2023-11-18T14:24:33;9.22;94.18
68801;SHT31;55784;50.734;7.086;2023-11-18T14:26:58;9.30;93.95
68801;SHT31;55784;50.734;7.086;2023-11-18T14:29:24;9.29;94.17
68801;SHT31;55784;50.734;7.086;2023-11-18T14:31:49;9.30;94.19
68801;SHT31;55784;50.734;7.086;2023-11-18T14:34:15;9.33;94.17
68801;SHT31;55784;50.734;7.086;2023-11-18T14:36:41;9.24;94.07
68801;SHT31;55784;50.734;7.086;2023-11-18T14:39:08;9.23;94.38
68801;SHT31;55784;50.734;7.086;2023-11-18T14:41:36;9.20;94.37
68801;SHT31;55784;50.734;7.086;2023-11-18T14:44:02;9.12;94.55
68801;SHT31;55784;50.734;7.086;2023-11-18T14:46:30;9.03;94.91
68801;SHT31;55784;50.734;7.086;2023-11-18T14:48:57;8.96;95.18
68801;SHT31;55784;50.734;7.086;2023-11-18T14:51:22;8.89;95.22
68801;SHT31;55784;50.734;7.086;2023-11-18T14:53:47;8.83;95.76
68801;SHT31;55784;50.734;7.086;2023-11-18T14:56:13;8.88;95.77
68801;SHT31;55784;50.734;7.086;2023-11-18T14:58:40;8.90;95.74
68801;SHT31;55784;50.734;7.086;2023-11-18T15:01:07;8.89;95.92
68801;SHT31;55784;50.734;7.086;2023-11-18T15:03:36;8.86;95.91
68801;SHT31;55784;50.734;7.086;2023-11-18T15:06:01;8.88;95.73
68801;SHT31;55784;50.734;7.086;2023-11-18T15:08:26;8.89;96.03
68801;SHT31;55784;50.734;7.086;2023-11-18T15:10:52;8.82;96.13
68801;SHT31;55784;50.734;7.086;2023-11-18T15:13:17;8.81;96.16
68801;SHT31;55784;50.734;7.086;2023-11-18T15:15:44;8.78;96.48
68801;SHT31;55784;50.734;7.086;2023-11-18T15:18:12;8.68;96.66
68801;SHT31;55784;50.734;7.086;2023-11-18T15:20:49;8.69;96.55
68801;SHT31;55784;50.734;7.086;2023-11-18T15:23:15;8.67;96.78
68801;SHT31;55784;50.734;7.086;2023-11-18T15:25:42;8.65;96.99
68801;SHT31;55784;50.734;7.086;2023-11-18T15:28:07;8.61;97.14
68801;SHT31;55784;50.734;7.086;2023-11-18T15:30:36;8.62;97.00
68801;SHT31;55784;50.734;7.086;2023-11-18T15:33:02;8.68;96.99
68801;SHT31;55784;50.734;7.086;2023-11-18T15:35:27;8.69;96.88
68801;SHT31;55784;50.734;7.086;2023-11-18T15:37:53;8.57;96.73
68801;SHT31;55784;50.734;7.086;2023-11-18T15:40:19;8.58;96.91
68801;SHT31;55784;50.734;7.086;2023-11-18T15:42:45;8.52;97.12
68801;SHT31;55784;50.734;7.086;2023-11-18T15:45:23;8.58;97.15
68801;SHT31;55784;50.734;7.086;2023-11-18T15:47:54;8.58;97.16
68801;SHT31;55784;50.734;7.086;2023-11-18T15:50:20;8.57;97.08
68801;SHT31;55784;50.734;7.086;2023-11-18T15:52:47;8.57;97.20
68801;SHT31;55784;50.734;7.086;2023-11-18T15:55:13;8.57;96.97
68801;SHT31;55784;50.734;7.086;2023-11-18T15:57:45;8.58;96.92
68801;SHT31;55784;50.734;7.086;2023-11-18T16:00:13;8.64;97.06
68801;SHT31;55784;50.734;7.086;2023-11-18T16:02:43;8.65;97.19
68801;SHT31;55784;50.734;7.086;2023-11-18T16:05:13;8.61;96.88
68801;SHT31;55784;50.734;7.086;2023-11-18T16:07:45;8.62;96.78
68801;SHT31;55784;50.734;7.086;2023-11-18T16:10:12;8.58;97.08
68801;SHT31;55784;50.734;7.086;2023-11-18T16:12:57;8.55;97.18
68801;SHT31;55784;50.734;7.086;2023-11-18T16:15:32;8.58;97.30
68801;SHT31;55784;50.734;7.086;2023-11-18T16:17:59;8.64;97.64
68801;SHT31;55784;50.734;7.086;2023-11-18T16:20:27;8.61;97.38
68801;SHT31;55784;50.734;7.086;2023-11-18T16:22:53;8.62;97.34
68801;SHT31;55784;50.734;7.086;2023-11-18T16:25:22;8.57;97.77
68801;SHT31;55784;50.734;7.086;2023-11-18T16:27:51;8.59;97.72
68801;SHT31;55784;50.734;7.086;2023-11-18T16:30:18;8.61;97.67